Time;durP1;ratioP1;P1;durP2;ratioP2;P2;SDS_P1;SDS_P2;PMS_P1;PMS_P2;Temp;Humidity;BMP_temperature;BMP_pressure;BME280_temperature;BME280_humidity;BME280_pressure;Samples;Min_cycle;Max_cycle;Signal;HPM_P1;HPM_P2
2021/06/15 00:00:34;;;;;;;2.63;2.38;;;;;;;11.34;89.90;93381.78;2099222;28;20023;-90
2021/06/15 00:01:35;;;;;;;3.63;2.30;;;;;;;11.42;90.40;93389.69;2106412;28;20024;-90
2021/06/15 00:02:36;;;;;;;4.57;2.60;;;;;;;11.40;90.40;93382.06;2107380;28;20110;-92
2021/06/15 00:03:36;;;;;;;4.05;2.80;;;;;;;11.32;90.92;93386.78;2099164;28;20456;-91
2021/06/15 00:04:37;;;;;;;2.67;2.47;;;;;;;11.33;90.25;93382.22;2099242;28;20025;-91
2021/06/15 00:05:38;;;;;;;3.38;3.00;;;;;;;11.31;90.53;93384.53;2099159;28;20059;-91
2021/06/15 00:06:38;;;;;;;3.10;2.67;;;;;;;11.28;91.25;93380.00;2099069;28;20012;-91
2021/06/15 00:07:40;;;;;;;4.47;2.40;;;;;;;11.28;90.21;93388.03;2107448;28;20020;-89
2021/06/15 00:08:40;;;;;;;3.95;2.70;;;;;;;11.30;90.55;93377.69;2107631;28;20074;-91
2021/06/15 00:09:41;;;;;;;2.78;2.33;;;;;;;11.25;91.11;93378.16;2107712;28;20058;-91
2021/06/15 00:10:43;;;;;;;5.18;2.50;;;;;;;11.10;91.19;93383.03;2107583;28;20103;-91
2021/06/15 00:11:43;;;;;;;3.80;2.40;;;;;;;11.09;91.18;93378.84;2099385;28;20028;-90
2021/06/15 00:12:44;;;;;;;4.70;2.60;;;;;;;11.10;91.21;93386.44;2099076;28;20061;-92
2021/06/15 00:13:45;;;;;;;4.72;2.50;;;;;;;11.17;90.34;93380.22;2090902;28;20028;-90
2021/06/15 00:14:46;;;;;;;3.13;2.33;;;;;;;11.13;90.43;93381.47;2099091;28;20028;-89
2021/06/15 00:15:49;;;;;;;2.55;2.35;;;;;;;11.14;90.71;93377.63;2099070;28;20401;-91
2021/06/15 00:16:50;;;;;;;3.60;3.00;;;;;;;11.09;91.07;93378.84;2100045;28;20040;-89
2021/06/15 00:17:52;;;;;;;4.78;2.78;;;;;;;11.00;91.16;93378.66;2116005;28;20022;-89
2021/06/15 00:18:52;;;;;;;3.00;2.70;;;;;;;10.99;91.26;93379.81;2107888;28;20077;-90
2021/06/15 00:19:53;;;;;;;4.00;2.42;;;;;;;11.03;90.82;93385.84;2096080;28;20028;-91
2021/06/15 00:20:54;;;;;;;6.05;2.53;;;;;;;11.09;91.42;93379.59;2107278;28;20016;-90
2021/06/15 00:21:55;;;;;;;2.67;2.47;;;;;;;11.03;90.61;93377.84;2106593;28;20027;-93
2021/06/15 00:22:55;;;;;;;3.25;2.45;;;;;;;10.99;90.66;93379.81;2090761;28;20044;-90
2021/06/15 00:23:56;;;;;;;2.85;2.33;;;;;;;11.03;91.08;93373.22;2098970;28;20044;-90
2021/06/15 00:24:57;;;;;;;4.75;2.60;;;;;;;10.98;90.56;93376.41;2099185;28;20098;-89
2021/06/15 00:25:57;;;;;;;3.70;2.40;;;;;;;10.97;91.21;93374.13;2090990;28;20021;-92
2021/06/15 00:26:58;;;;;;;3.03;2.70;;;;;;;10.98;91.23;93368.38;2090960;28;20025;-90
2021/06/15 00:27:59;;;;;;;4.18;2.80;;;;;;;10.96;90.25;93370.69;2099055;28;20081;-89
2021/06/15 00:28:59;;;;;;;3.03;2.38;;;;;;;10.98;90.71;93371.03;2098965;28;20027;-90
2021/06/15 00:30:01;;;;;;;3.60;2.65;;;;;;;10.97;90.94;93368.75;2096593;28;20025;-90
2021/06/15 00:31:01;;;;;;;2.58;2.38;;;;;;;10.86;90.97;93368.97;2099027;28;20496;-92
2021/06/15 00:32:02;;;;;;;3.20;2.72;;;;;;;10.93;91.43;93376.09;2092349;28;20108;-91
2021/06/15 00:33:03;;;;;;;2.83;2.60;;;;;;;10.93;91.54;93368.84;2090765;28;20122;-91
2021/06/15 00:34:04;;;;;;;3.88;2.92;;;;;;;10.87;91.56;93373.16;2093659;28;20029;-91
2021/06/15 00:35:06;;;;;;;4.13;2.88;;;;;;;10.82;92.07;93369.03;2090712;28;20116;-91
2021/06/15 00:36:07;;;;;;;3.70;3.08;;;;;;;10.75;92.20;93371.09;2090752;28;20552;-92
2021/06/15 00:37:08;;;;;;;3.15;2.75;;;;;;;10.76;91.58;93369.94;2098988;28;20024;-91
2021/06/15 00:38:08;;;;;;;2.97;2.67;;;;;;;10.78;91.54;93365.69;2105806;28;20073;-91
2021/06/15 00:39:09;;;;;;;5.10;2.90;;;;;;;10.81;91.65;93369.47;2091475;28;20059;-91
2021/06/15 00:40:10;;;;;;;3.25;2.80;;;;;;;10.77;93.18;93366.09;2090690;28;20025;-89
2021/06/15 00:41:11;;;;;;;3.30;2.58;;;;;;;10.84;92.26;93368.63;2090644;28;20048;-90
2021/06/15 00:42:12;;;;;;;2.60;2.40;;;;;;;10.77;91.91;93369.53;2094982;28;20028;-91
2021/06/15 00:43:13;;;;;;;3.08;2.63;;;;;;;10.73;91.89;93370.75;2094607;28;20108;-91
2021/06/15 00:44:13;;;;;;;4.18;2.90;;;;;;;10.80;91.86;93376.72;2090554;28;20437;-91
2021/06/15 00:45:17;;;;;;;3.70;2.83;;;;;;;10.74;91.71;93372.25;2098338;28;20021;-90
2021/06/15 00:46:18;;;;;;;3.08;2.50;;;;;;;10.66;92.00;93373.53;2106700;28;20047;-91
2021/06/15 00:47:18;;;;;;;4.63;3.13;;;;;;;10.72;91.58;93367.31;2098822;28;20462;-91
2021/06/15 00:48:28;;;;;;;3.38;2.67;;;;;;;10.63;92.60;93369.78;2103896;28;20110;-91
2021/06/15 00:49:34;;;;;;;5.18;2.97;;;;;;;10.61;92.81;93369.41;2101898;28;20413;-89
2021/06/15 00:50:35;;;;;;;4.80;2.55;;;;;;;10.55;92.88;93376.41;2095136;28;20099;-90
2021/06/15 00:51:36;;;;;;;3.83;2.53;;;;;;;10.58;93.46;93376.34;2106388;28;20069;-90
2021/06/15 00:52:37;;;;;;;3.47;2.90;;;;;;;10.58;93.64;93368.34;2099408;28;20101;-90
2021/06/15 00:53:38;;;;;;;3.45;2.53;;;;;;;10.58;93.25;93375.59;2097811;28;20098;-91
2021/06/15 00:54:40;;;;;;;4.38;2.70;;;;;;;10.62;92.61;93375.53;2107122;28;20481;-90
2021/06/15 00:55:40;;;;;;;4.22;3.10;;;;;;;10.57;92.79;93377.50;2099111;28;20032;-90
2021/06/15 00:56:41;;;;;;;2.92;2.72;;;;;;;10.52;92.98;93369.97;2106949;28;20031;-91
2021/06/15 00:57:42;;;;;;;5.25;3.17;;;;;;;10.56;93.55;93361.88;2107182;28;20035;-90
2021/06/15 00:58:42;;;;;;;8.90;2.97;;;;;;;10.53;93.01;93368.78;2098794;28;20119;-90
2021/06/15 00:59:43;;;;;;;4.85;2.70;;;;;;;10.48;93.04;93368.50;2106761;28;20035;-91
2021/06/15 01:00:44;;;;;;;5.53;2.70;;;;;;;10.52;93.30;93361.94;2107133;28;20028;-92
2021/06/15 01:01:45;;;;;;;7.22;3.00;;;;;;;10.48;92.97;93355.91;2098670;28;20047;-90
2021/06/15 01:02:46;;;;;;;2.67;2.47;;;;;;;10.46;93.20;93366.25;2098943;28;20453;-91
2021/06/15 01:03:47;;;;;;;3.83;3.13;;;;;;;10.43;93.12;93363.63;2115788;27;20027;-91
2021/06/15 01:04:48;;;;;;;3.08;2.42;;;;;;;10.40;93.46;93367.88;2115373;28;20027;-92
2021/06/15 01:05:50;;;;;;;3.65;2.70;;;;;;;10.45;93.90;93359.41;2115653;27;20412;-91
2021/06/15 01:07:09;;;;;;;3.80;3.00;;;;;;;10.45;92.92;93361.31;2115619;28;20062;-92
2021/06/15 01:08:35;;;;;;;3.40;3.00;;;;;;;10.42;93.10;93352.19;2097802;28;20029;-90
2021/06/15 01:10:08;;;;;;;3.55;2.88;;;;;;;10.41;93.11;93356.03;2094733;28;20027;-91
2021/06/15 01:11:15;;;;;;;2.92;2.63;;;;;;;10.41;93.14;93360.63;2107061;28;20107;-90
2021/06/15 01:12:45;;;;;;;3.08;2.80;;;;;;;10.36;93.78;93355.72;2100533;28;20057;-91
2021/06/15 01:14:04;;;;;;;3.63;3.05;;;;;;;10.42;92.79;93362.13;2101644;28;20024;-90
2021/06/15 01:15:05;;;;;;;4.13;3.30;;;;;;;10.36;93.60;93358.41;2100364;28;20481;-91
2021/06/15 01:16:28;;;;;;;4.82;3.22;;;;;;;10.34;93.27;93356.91;2090388;28;20028;-91
2021/06/15 01:17:54;;;;;;;5.50;3.20;;;;;;;10.29;94.46;93361.97;2082596;28;20043;-90
2021/06/15 01:19:04;;;;;;;4.35;2.92;;;;;;;10.25;94.17;93361.28;2100842;28;20065;-90
2021/06/15 01:20:27;;;;;;;3.50;2.72;;;;;;;10.26;94.00;93358.19;2099815;28;20050;-91
2021/06/15 01:21:28;;;;;;;5.35;3.00;;;;;;;10.27;93.78;93358.94;2096611;28;20030;-91
2021/06/15 01:22:38;;;;;;;4.22;3.00;;;;;;;10.21;93.83;93358.63;2098675;28;20035;-89
2021/06/15 01:23:41;;;;;;;4.20;2.90;;;;;;;10.22;94.11;93368.13;2114586;28;20094;-89
2021/06/15 01:25:16;;;;;;;3.28;3.03;;;;;;;10.26;94.42;93358.19;2099220;28;20036;-90
2021/06/15 01:26:52;;;;;;;4.32;2.55;;;;;;;10.27;94.46;93356.25;2085101;28;20026;-90
2021/06/15 01:27:58;;;;;;;3.72;3.10;;;;;;;10.27;94.55;93356.25;2104945;28;20024;-89
2021/06/15 01:29:06;;;;;;;4.80;3.00;;;;;;;10.17;94.92;93355.25;2108425;28;20064;-89
2021/06/15 01:30:10;;;;;;;3.15;2.80;;;;;;;10.20;93.91;93357.13;2111993;28;20030;-89
2021/06/15 01:31:26;;;;;;;3.70;2.78;;;;;;;10.14;95.04;93360.66;2099025;28;20545;-90
2021/06/15 01:32:30;;;;;;;4.88;2.80;;;;;;;10.15;94.08;93354.16;2097594;28;20082;-90
2021/06/15 01:33:37;;;;;;;3.03;2.72;;;;;;;10.12;94.56;93352.28;2093380;28;20032;-90
2021/06/15 01:34:42;;;;;;;5.13;2.80;;;;;;;10.11;94.53;93358.81;2092040;28;20028;-91
2021/06/15 01:35:44;;;;;;;3.22;2.92;;;;;;;10.12;94.05;93352.28;2104553;28;20478;-90
2021/06/15 01:36:55;;;;;;;2.88;2.65;;;;;;;10.10;94.04;93352.72;2098477;28;20023;-90
2021/06/15 01:38:04;;;;;;;3.78;3.42;;;;;;;10.12;93.99;93350.38;2093261;28;20029;-90
2021/06/15 01:39:18;;;;;;;5.13;2.80;;;;;;;10.11;93.94;93346.19;2095619;28;20070;-92
2021/06/15 01:40:23;;;;;;;4.72;3.30;;;;;;;10.13;94.55;93346.53;2095448;28;20025;-89
2021/06/15 01:41:34;;;;;;;5.78;3.20;;;;;;;10.13;94.52;93348.47;2097046;28;20519;-90
2021/06/15 01:42:39;;;;;;;3.85;2.90;;;;;;;10.13;95.04;93346.53;2101542;28;20069;-89
2021/06/15 01:43:43;;;;;;;4.47;3.35;;;;;;;10.05;94.51;93345.91;2094122;28;20501;-90
2021/06/15 01:44:51;;;;;;;3.28;2.97;;;;;;;10.03;95.12;93340.22;2091085;28;20123;-90
2021/06/15 01:45:55;;;;;;;5.72;3.10;;;;;;;10.01;94.66;93339.13;2098995;28;20111;-89
2021/06/15 01:47:05;;;;;;;3.63;2.90;;;;;;;10.02;94.42;93337.97;2106864;28;20016;-89
2021/06/15 01:48:36;;;;;;;3.67;3.38;;;;;;;10.02;94.48;93336.03;2107372;28;20103;-91
2021/06/15 01:49:45;;;;;;;3.95;2.90;;;;;;;9.99;95.10;93341.44;2110679;28;20070;-90
2021/06/15 01:50:47;;;;;;;5.22;3.30;;;;;;;9.98;94.74;93337.25;2092144;28;20021;-90
2021/06/15 01:51:49;;;;;;;3.35;2.85;;;;;;;9.94;94.69;93336.56;2098463;28;20020;-89
2021/06/15 01:52:52;;;;;;;5.45;3.10;;;;;;;9.98;94.88;93332.66;2098435;28;20035;-89
2021/06/15 01:54:00;;;;;;;8.02;3.78;;;;;;;9.99;95.45;93336.84;2090714;28;20024;-90
2021/06/15 01:55:03;;;;;;;4.47;3.40;;;;;;;9.90;96.45;93335.84;2092094;28;20052;-91
2021/06/15 01:56:05;;;;;;;4.60;3.45;;;;;;;9.94;96.69;93326.63;2097221;28;20377;-90
2021/06/15 01:57:08;;;;;;;4.32;3.30;;;;;;;9.92;96.41;93331.63;2098043;28;20465;-91
2021/06/15 01:58:09;;;;;;;4.13;3.15;;;;;;;9.88;95.83;93333.59;2098771;28;20021;-91
2021/06/15 01:59:13;;;;;;;4.45;2.97;;;;;;;9.83;95.71;93329.47;2098364;28;20025;-91
2021/06/15 02:00:14;;;;;;;5.13;3.05;;;;;;;9.88;95.79;93330.16;2106925;28;20505;-90
2021/06/15 02:01:18;;;;;;;5.07;3.30;;;;;;;9.88;94.93;93333.59;2106297;28;20022;-90
2021/06/15 02:02:19;;;;;;;3.95;3.28;;;;;;;9.90;94.76;93330.53;2090794;28;20028;-90
2021/06/15 02:03:21;;;;;;;4.78;3.55;;;;;;;9.86;94.38;93333.25;2097405;28;20044;-89
2021/06/15 02:05:53;;;;;;;;;;;;;;;9.85;94.79;93331.72;2149190;27;20119;-89
2021/06/15 02:06:55;;;;;;;3.35;3.05;;;;;;;9.76;95.79;93334.16;2122914;27;19951;-91
2021/06/15 02:08:01;;;;;;;4.63;3.20;;;;;;;9.76;95.23;93328.81;2114193;28;20024;-91
2021/06/15 02:09:04;;;;;;;7.40;3.10;;;;;;;9.69;96.57;93329.69;2113256;27;20542;-90
2021/06/15 02:10:10;;;;;;;5.10;3.50;;;;;;;9.70;96.44;93333.09;2114774;27;20027;-90
2021/06/15 02:11:12;;;;;;;4.05;3.50;;;;;;;9.73;95.89;93321.63;2111126;28;20024;-90
2021/06/15 02:12:19;;;;;;;4.53;3.38;;;;;;;9.66;96.34;93329.72;2114446;27;20032;-90
2021/06/15 02:13:20;;;;;;;5.88;3.50;;;;;;;9.68;95.96;93327.41;2113874;28;20495;-89
2021/06/15 02:14:26;;;;;;;4.30;3.40;;;;;;;9.69;96.10;93328.91;2116453;27;20030;-91
2021/06/15 02:15:28;;;;;;;4.95;3.78;;;;;;;9.67;96.00;93332.00;2121604;27;20425;-91
2021/06/15 02:16:30;;;;;;;6.45;3.67;;;;;;;9.66;95.59;93329.72;2114335;27;20023;-90
2021/06/15 02:17:31;;;;;;;5.85;3.33;;;;;;;9.65;96.70;93325.56;2107166;28;20016;-90
2021/06/15 02:18:33;;;;;;;6.05;3.50;;;;;;;9.63;97.57;93327.88;2105607;28;20110;-90
2021/06/15 02:19:36;;;;;;;6.25;3.58;;;;;;;9.62;97.80;93326.38;2107822;27;20016;-90
2021/06/15 02:20:43;;;;;;;6.38;3.60;;;;;;;9.64;97.99;93322.13;2110083;27;20457;-90
2021/06/15 02:21:49;;;;;;;5.25;3.20;;;;;;;9.56;97.76;93324.13;2121451;27;20019;-90
2021/06/15 02:22:52;;;;;;;4.47;3.20;;;;;;;9.65;96.71;93320.22;2114531;28;20541;-90
2021/06/15 02:23:57;;;;;;;3.97;2.90;;;;;;;9.63;96.12;93325.22;2122968;27;20027;-90
2021/06/15 02:25:01;;;;;;;3.95;2.85;;;;;;;9.65;96.09;93322.88;2122276;28;20068;-90
2021/06/15 02:26:08;;;;;;;4.53;3.22;;;;;;;9.64;95.93;93318.72;2114222;28;20028;-90
2021/06/15 02:27:11;;;;;;;5.60;3.60;;;;;;;9.59;96.02;93323.34;2107194;28;20389;-90
2021/06/15 02:28:12;;;;;;;8.07;3.28;;;;;;;9.57;96.62;93325.66;2113823;28;20079;-90
2021/06/15 02:29:12;;;;;;;6.90;3.20;;;;;;;9.54;97.39;93318.47;2105359;28;20032;-90
2021/06/15 02:30:14;;;;;;;6.75;3.92;;;;;;;9.50;97.85;93322.34;2097018;28;20101;-91
2021/06/15 02:31:21;;;;;;;4.35;3.15;;;;;;;9.48;97.92;93320.09;2105616;28;20481;-90
2021/06/15 02:32:27;;;;;;;5.63;3.70;;;;;;;9.49;97.52;93321.59;2097902;28;20029;-90
2021/06/15 02:33:33;;;;;;;4.75;3.83;;;;;;;9.50;96.94;93317.00;2090003;28;20514;-90
2021/06/15 02:34:37;;;;;;;3.58;3.28;;;;;;;9.52;97.19;93320.75;2106561;28;20516;-89
2021/06/15 02:35:46;;;;;;;4.53;3.67;;;;;;;9.49;97.06;93318.16;2105259;28;20059;-90
2021/06/15 02:36:48;;;;;;;6.28;3.47;;;;;;;9.53;97.26;93319.63;2103863;28;20094;-89
2021/06/15 02:38:00;;;;;;;6.43;3.35;;;;;;;9.49;97.12;93326.94;2105597;28;20059;-90
2021/06/15 02:39:10;;;;;;;5.45;3.65;;;;;;;9.50;97.06;93323.09;2108465;28;20024;-91
2021/06/15 02:40:13;;;;;;;6.60;3.95;;;;;;;9.46;96.54;93326.97;2110447;28;20518;-91
2021/06/15 02:41:16;;;;;;;4.18;3.58;;;;;;;9.44;96.01;93335.38;2113898;28;20031;-89
2021/06/15 02:42:19;;;;;;;4.93;3.60;;;;;;;9.43;96.36;93323.19;2114417;27;20114;-90
2021/06/15 02:43:23;;;;;;;4.20;3.80;;;;;;;9.48;96.49;93325.44;2113775;28;20016;-91
2021/06/15 02:44:30;;;;;;;5.97;3.35;;;;;;;9.41;97.41;93325.50;2109090;28;20019;-89
2021/06/15 02:45:33;;;;;;;5.53;3.45;;;;;;;9.39;97.21;93329.72;2107020;28;20022;-90
2021/06/15 02:46:36;;;;;;;4.45;3.40;;;;;;;9.37;98.27;93332.06;2101415;28;20094;-91
2021/06/15 02:47:40;;;;;;;5.43;3.47;;;;;;;9.39;98.56;93333.16;2097310;28;20581;-90
2021/06/15 02:48:46;;;;;;;5.50;3.60;;;;;;;9.35;97.92;93332.47;2097530;28;20048;-89
2021/06/15 02:49:55;;;;;;;4.20;3.38;;;;;;;9.34;97.32;93336.28;2097503;28;20514;-90
2021/06/15 02:50:56;;;;;;;5.50;3.60;;;;;;;9.33;97.82;93335.53;2105365;28;20058;-90
2021/06/15 02:52:08;;;;;;;5.05;3.53;;;;;;;9.40;97.65;93339.25;2106681;28;20497;-90
2021/06/15 02:53:18;;;;;;;3.80;3.40;;;;;;;9.31;97.77;93335.19;2112310;28;20053;-89
2021/06/15 02:54:30;;;;;;;;;;;;;;;9.31;97.62;93337.09;2112371;28;20027;-88
2021/06/15 02:55:37;;;;;;;6.95;3.50;;;;;;;9.35;97.74;93335.13;2098295;28;19916;-90
2021/06/15 02:56:43;;;;;;;6.05;3.17;;;;;;;9.32;97.42;93334.00;2090148;28;20528;-89
2021/06/15 02:57:44;;;;;;;4.50;3.65;;;;;;;9.31;97.73;93337.09;2090074;28;20025;-91
2021/06/15 02:58:46;;;;;;;5.82;3.72;;;;;;;9.27;97.13;93337.13;2095743;28;20048;-89
2021/06/15 02:59:47;;;;;;;4.60;3.63;;;;;;;9.27;96.88;93336.38;2097023;28;20473;-90
2021/06/15 03:00:48;;;;;;;6.25;3.20;;;;;;;9.26;96.99;93329.53;2096897;28;20052;-90
2021/06/15 03:01:50;;;;;;;5.80;3.28;;;;;;;9.28;97.87;93335.97;2105048;28;20077;-91
2021/06/15 03:02:51;;;;;;;6.20;3.70;;;;;;;9.20;97.54;93333.81;2105299;28;20024;-90
2021/06/15 03:03:52;;;;;;;5.03;3.45;;;;;;;9.17;97.78;93342.59;2112052;28;20529;-90
2021/06/15 03:04:53;;;;;;;6.28;3.60;;;;;;;9.19;97.40;93338.38;2113251;28;20028;-90
2021/06/15 03:05:53;;;;;;;4.57;3.25;;;;;;;9.17;98.04;93337.25;2106123;28;20487;-90
2021/06/15 03:06:55;;;;;;;4.90;3.65;;;;;;;9.19;98.16;93341.03;2110305;28;20031;-89
2021/06/15 03:07:55;;;;;;;5.05;3.80;;;;;;;9.18;98.09;93336.13;2096731;28;20021;-89
2021/06/15 03:08:57;;;;;;;5.80;4.25;;;;;;;9.19;98.14;93335.72;2088539;28;20470;-90
2021/06/15 03:10:01;;;;;;;5.55;3.50;;;;;;;9.18;98.74;93333.47;2096814;28;20063;-89
2021/06/15 03:11:03;;;;;;;6.30;3.80;;;;;;;9.11;98.91;93338.88;2100261;28;20020;-89
2021/06/15 03:12:15;;;;;;;4.93;3.63;;;;;;;9.12;98.17;93341.13;2113714;28;20024;-90
2021/06/15 03:13:21;;;;;;;5.60;3.30;;;;;;;9.19;97.58;93340.28;2113408;28;20078;-92
2021/06/15 03:14:24;;;;;;;5.13;3.75;;;;;;;9.18;98.26;93338.78;2105717;28;20031;-89
2021/06/15 03:15:48;;;;;;;4.15;3.28;;;;;;;9.14;97.72;93340.75;2105919;28;20012;-90
2021/06/15 03:16:53;;;;;;;4.43;3.60;;;;;;;9.14;97.94;93343.41;2104403;28;20016;-90
2021/06/15 03:18:07;;;;;;;6.65;3.90;;;;;;;9.07;98.09;93342.31;2092382;28;20490;-90
2021/06/15 03:19:22;;;;;;;5.13;3.53;;;;;;;9.05;98.51;93343.91;2086669;28;20518;-89
2021/06/15 03:20:26;;;;;;;6.55;3.70;;;;;;;9.06;97.99;93337.41;2086874;28;20029;-90
2021/06/15 03:21:31;;;;;;;4.68;3.25;;;;;;;9.03;97.16;93336.28;2095654;28;20024;-90
2021/06/15 03:22:53;;;;;;;4.63;3.65;;;;;;;9.05;98.81;93334.00;2100635;28;20031;-91
2021/06/15 03:24:03;;;;;;;4.85;3.85;;;;;;;9.04;99.09;93337.03;2100057;28;20028;-91
2021/06/15 03:25:04;;;;;;;4.78;3.65;;;;;;;9.06;98.43;93332.81;2092373;28;20040;-92
2021/06/15 03:26:10;;;;;;;4.03;3.60;;;;;;;9.10;97.61;93330.13;2105802;28;20027;-91
2021/06/15 03:27:15;;;;;;;5.30;3.83;;;;;;;9.07;99.34;93329.00;2100758;28;20021;-89
2021/06/15 03:28:21;;;;;;;5.38;3.13;;;;;;;9.05;98.89;93331.31;2095416;28;20017;-89
2021/06/15 03:29:25;;;;;;;5.63;3.65;;;;;;;9.02;98.64;93345.44;2096444;28;20021;-89
2021/06/15 03:30:28;;;;;;;6.28;4.20;;;;;;;9.03;98.37;93343.53;2108275;28;20111;-91
2021/06/15 03:31:37;;;;;;;4.97;3.78;;;;;;;8.99;97.97;93340.16;2107961;28;20023;-90
2021/06/15 03:33:00;;;;;;;4.90;3.05;;;;;;;9.06;97.59;93340.81;2101767;28;20066;-91
2021/06/15 03:34:03;;;;;;;5.18;3.45;;;;;;;9.00;97.70;93339.75;2105527;28;20489;-90
2021/06/15 03:35:05;;;;;;;6.25;3.70;;;;;;;9.03;98.15;93330.94;2100158;28;20021;-89
2021/06/15 03:36:07;;;;;;;6.03;3.72;;;;;;;9.03;98.33;93333.63;2108044;28;20020;-91
2021/06/15 03:37:11;;;;;;;6.03;3.90;;;;;;;9.06;98.60;93335.50;2108126;28;20067;-89
2021/06/15 03:38:14;;;;;;;5.55;3.97;;;;;;;9.10;99.06;93329.38;2101354;28;20039;-89
2021/06/15 03:39:17;;;;;;;6.95;3.97;;;;;;;9.08;98.63;93330.50;2091336;28;20107;-90
2021/06/15 03:40:21;;;;;;;5.50;3.92;;;;;;;9.06;97.72;93338.16;2091868;28;20104;-90
2021/06/15 03:41:23;;;;;;;5.15;3.40;;;;;;;9.02;98.13;93337.44;2083823;28;20037;-89
2021/06/15 03:42:27;;;;;;;6.35;3.40;;;;;;;9.05;97.73;93336.66;2102335;28;20458;-91
2021/06/15 03:43:30;;;;;;;5.90;3.88;;;;;;;9.11;98.54;93339.63;2108351;28;20020;-89
2021/06/15 03:44:31;;;;;;;4.28;3.45;;;;;;;9.13;97.75;93336.53;2116294;28;20487;-89
2021/06/15 03:45:36;;;;;;;6.90;3.67;;;;;;;9.14;97.83;93336.16;2107533;28;20012;-91
2021/06/15 03:46:39;;;;;;;5.90;4.10;;;;;;;9.12;98.19;93335.03;2100314;28;20195;-92
2021/06/15 03:47:43;;;;;;;6.20;3.85;;;;;;;9.11;98.26;93325.53;2099743;28;20384;-90
2021/06/15 03:48:46;;;;;;;5.55;3.65;;;;;;;9.13;98.35;93332.00;2100086;28;20362;-90
2021/06/15 03:49:48;;;;;;;6.13;3.80;;;;;;;9.15;97.64;93334.25;2096682;28;20421;-90
2021/06/15 03:50:51;;;;;;;4.38;3.65;;;;;;;9.14;98.00;93336.16;2094896;28;20052;-90
2021/06/15 03:51:54;;;;;;;4.82;3.53;;;;;;;9.16;97.16;93328.50;2116061;28;20404;-90
2021/06/15 03:52:57;;;;;;;6.72;4.30;;;;;;;9.17;97.50;93334.59;2107850;28;20032;-90
2021/06/15 03:54:06;;;;;;;4.78;3.90;;;;;;;9.16;97.79;93336.50;2107922;28;20024;-91
2021/06/15 03:55:10;;;;;;;7.53;3.92;;;;;;;9.18;97.75;93336.88;2101545;28;20048;-90
2021/06/15 03:56:11;;;;;;;4.85;3.42;;;;;;;9.17;97.68;93326.59;2099965;28;20070;-90
2021/06/15 03:57:11;;;;;;;7.70;3.50;;;;;;;9.12;97.87;93341.13;2099264;28;20020;-90
2021/06/15 03:58:14;;;;;;;6.25;3.92;;;;;;;9.18;97.36;93341.47;2095866;28;20032;-90
2021/06/15 03:59:19;;;;;;;5.15;3.75;;;;;;;9.19;97.64;93330.38;2107448;28;20504;-91
2021/06/15 04:00:23;;;;;;;6.28;3.80;;;;;;;9.23;97.05;93331.09;2099096;28;20024;-90
2021/06/15 04:01:24;;;;;;;8.63;4.15;;;;;;;9.18;97.75;93328.88;2100339;28;20115;-89
2021/06/15 04:02:27;;;;;;;4.90;3.20;;;;;;;9.21;97.85;93332.63;2099117;28;20036;-89
2021/06/15 04:03:32;;;;;;;6.00;3.58;;;;;;;9.20;97.97;93344.47;2108013;27;20020;-91
2021/06/15 04:04:40;;;;;;;4.63;3.65;;;;;;;9.26;98.29;93337.50;2108402;28;20032;-89
2021/06/15 04:05:42;;;;;;;5.00;3.70;;;;;;;9.22;98.01;93336.81;2098207;28;20036;-90
2021/06/15 04:06:51;;;;;;;4.75;3.55;;;;;;;9.25;98.30;93334.09;2107552;28;20166;-90
2021/06/15 04:07:52;;;;;;;4.80;3.70;;;;;;;9.29;97.79;93334.06;2101888;28;20039;-88
2021/06/15 04:08:56;;;;;;;6.13;3.60;;;;;;;9.29;97.96;93336.72;2099199;28;20527;-91
2021/06/15 04:09:57;;;;;;;5.47;3.50;;;;;;;9.31;97.57;93345.84;2115704;28;20027;-90
2021/06/15 04:10:59;;;;;;;4.07;3.65;;;;;;;9.37;98.75;93340.81;2107580;28;20020;-90
2021/06/15 04:12:00;;;;;;;5.57;3.80;;;;;;;9.40;98.96;93342.69;2107854;28;20374;-91
2021/06/15 04:13:05;;;;;;;6.70;3.85;;;;;;;9.43;98.36;93349.88;2103088;28;20020;-89
2021/06/15 04:14:09;;;;;;;7.40;4.05;;;;;;;9.41;98.04;93343.44;2099994;28;20020;-90
2021/06/15 04:15:11;;;;;;;4.57;3.90;;;;;;;9.41;98.13;93338.84;2096376;28;20021;-90
2021/06/15 04:16:13;;;;;;;5.65;3.92;;;;;;;9.39;98.88;93341.16;2099551;28;20032;-91
2021/06/15 04:17:16;;;;;;;7.00;3.70;;;;;;;9.46;98.58;93332.31;2095012;28;20090;-89
2021/06/15 04:18:20;;;;;;;6.53;3.72;;;;;;;9.48;97.91;93330.75;2099120;28;20024;-89
2021/06/15 04:19:55;;;;;;;6.25;3.60;;;;;;;9.51;97.77;93335.28;2107796;28;20107;-91
2021/06/15 04:21:02;;;;;;;4.30;3.75;;;;;;;9.55;97.53;93332.56;2086816;28;20024;-91
2021/06/15 04:22:04;;;;;;;7.82;4.20;;;;;;;9.54;97.50;93344.41;2104402;28;20437;-92
2021/06/15 04:23:08;;;;;;;5.70;3.60;;;;;;;9.56;97.43;93339.41;2107663;28;20051;-92
2021/06/15 04:24:12;;;;;;;4.80;3.65;;;;;;;9.63;97.42;93336.63;2101978;28;20032;-91
2021/06/15 04:25:19;;;;;;;6.95;4.10;;;;;;;9.62;97.80;93340.47;2098930;28;20100;-91
2021/06/15 04:26:20;;;;;;;6.63;3.80;;;;;;;9.68;98.06;93340.75;2098486;28;20140;-90
2021/06/15 04:27:25;;;;;;;7.65;4.40;;;;;;;9.70;97.88;93344.56;2098723;28;20062;-89
2021/06/15 04:28:26;;;;;;;4.68;3.78;;;;;;;9.73;98.00;93342.97;2095810;28;20028;-91
2021/06/15 04:29:27;;;;;;;7.65;4.57;;;;;;;9.74;98.56;93339.13;2099403;28;20430;-90
2021/06/15 04:30:34;;;;;;;5.72;4.15;;;;;;;9.77;97.78;93341.00;2098858;28;20068;-89
2021/06/15 04:31:37;;;;;;;7.72;3.72;;;;;;;9.81;98.35;93339.78;2096293;28;20028;-89
2021/06/15 04:32:51;;;;;;;5.28;3.58;;;;;;;9.87;98.75;93339.31;2098970;28;20024;-90
2021/06/15 04:33:53;;;;;;;6.65;3.45;;;;;;;9.90;98.16;93339.28;2102553;28;20030;-92
2021/06/15 04:35:04;;;;;;;6.47;3.90;;;;;;;9.94;98.25;93339.22;2099018;28;20032;-90
2021/06/15 04:36:06;;;;;;;4.95;3.85;;;;;;;9.94;97.47;93337.31;2085129;28;20517;-90
2021/06/15 04:37:09;;;;;;;7.32;3.78;;;;;;;9.97;98.67;93343.75;2104884;28;20389;-90
2021/06/15 04:38:15;;;;;;;4.22;3.40;;;;;;;9.98;98.55;93346.03;2107223;28;20470;-90
2021/06/15 04:39:20;;;;;;;6.60;3.50;;;;;;;10.05;98.66;93345.91;2091957;28;20021;-89
2021/06/15 04:40:28;;;;;;;5.47;3.67;;;;;;;10.04;98.02;93344.38;2099167;28;20527;-91
2021/06/15 04:41:58;;;;;;;4.90;3.53;;;;;;;10.04;98.01;93340.97;2105365;28;20523;-90
2021/06/15 04:43:19;;;;;;;3.83;3.53;;;;;;;10.09;98.20;93343.91;2103213;28;20163;-90
2021/06/15 04:44:30;;;;;;;5.78;3.72;;;;;;;10.12;98.07;93349.63;2107025;28;20027;-91
2021/06/15 04:45:39;;;;;;;4.55;3.53;;;;;;;10.16;97.44;93344.97;2100060;28;20384;-91
2021/06/15 04:46:50;;;;;;;4.00;3.58;;;;;;;10.18;98.47;93353.31;2091555;28;20025;-92
2021/06/15 04:48:04;;;;;;;3.85;3.55;;;;;;;10.25;98.00;93347.91;2085016;28;20509;-90
2021/06/15 04:49:26;;;;;;;3.65;3.30;;;;;;;10.27;98.00;93348.25;2092483;28;20025;-89
2021/06/15 04:50:28;;;;;;;3.03;2.75;;;;;;;10.29;97.50;93346.69;2100016;28;20023;-91
2021/06/15 04:51:31;;;;;;;4.05;3.42;;;;;;;10.34;97.58;93345.47;2098881;28;20020;-90
2021/06/15 04:52:35;;;;;;;5.95;3.67;;;;;;;10.38;97.14;93340.06;2103757;28;20028;-91
2021/06/15 04:53:38;;;;;;;6.00;3.50;;;;;;;10.40;97.94;93343.06;2082869;28;20116;-91
2021/06/15 04:54:47;;;;;;;3.50;3.20;;;;;;;10.45;97.95;93339.94;2091093;28;20020;-90
2021/06/15 04:55:48;;;;;;;3.70;3.40;;;;;;;10.48;97.48;93342.53;2110753;28;20444;-91
2021/06/15 04:56:50;;;;;;;4.05;3.53;;;;;;;10.50;96.99;93345.56;2101330;28;20051;-91
2021/06/15 04:57:52;;;;;;;3.90;3.42;;;;;;;10.50;97.74;93347.50;2099016;28;20020;-91
2021/06/15 04:58:55;;;;;;;5.95;3.40;;;;;;;10.56;98.00;93354.63;2107128;28;20477;-91
2021/06/15 05:00:01;;;;;;;3.47;3.17;;;;;;;10.59;98.43;93348.47;2111379;28;20032;-90
2021/06/15 05:01:03;;;;;;;5.97;3.60;;;;;;;10.60;98.19;93354.56;2108311;28;20031;-90
2021/06/15 05:02:05;;;;;;;5.32;3.47;;;;;;;10.66;98.38;93349.47;2107675;28;20117;-91
2021/06/15 05:03:08;;;;;;;3.78;3.20;;;;;;;10.68;97.62;93347.16;2098926;28;20115;-89
2021/06/15 05:04:09;;;;;;;3.58;3.28;;;;;;;10.73;98.14;93352.78;2115877;28;20019;-90
2021/06/15 05:05:11;;;;;;;6.15;3.25;;;;;;;10.77;97.97;93355.41;2123507;27;20039;-90
2021/06/15 05:06:13;;;;;;;3.78;3.47;;;;;;;10.80;98.42;93352.66;2107091;28;20035;-90
2021/06/15 05:07:18;;;;;;;3.80;3.40;;;;;;;10.82;98.80;93354.91;2093652;28;20083;-92
2021/06/15 05:08:24;;;;;;;3.70;3.40;;;;;;;10.86;98.28;93352.94;2083192;28;20329;-91
2021/06/15 05:09:27;;;;;;;3.53;3.22;;;;;;;10.89;97.63;93352.13;2091419;28;20416;-89
2021/06/15 05:10:30;;;;;;;3.88;3.00;;;;;;;10.95;98.55;93352.38;2106803;27;20615;-91